This is the latest recevied weather packets stored in our database for station/object HS5AL. If no packets are shown the sender has not sent any weather packets the latest 10 day(s).
| Time | Temp. | Humidity | Pressure | Rain* | Wind** | Luminosity | Snow |
|---|---|---|---|---|---|---|---|
| 1777865931 | 35.56° C | 42% | 976 hPa | - | - | 0 W/m² | - |
| 1777865309 | 35° C | 42% | 977 hPa | - | - | 0 W/m² | - |
| 1777864687 | 35° C | 43% | 977 hPa | - | - | 0 W/m² | - |
| 1777864065 | 35° C | 43% | 977 hPa | - | - | 0 W/m² | - |
| 1777863443 | 35° C | 43% | 977 hPa | - | - | 0 W/m² | - |
| 1777862820 | 35° C | 43% | 977 hPa | - | - | 0 W/m² | - |
| 1777862198 | 35° C | 43% | 977 hPa | - | - | 0 W/m² | - |
| 1777861576 | 35° C | 43% | 977 hPa | - | - | 0 W/m² | - |
| 1777860954 | 35° C | 43% | 977 hPa | - | - | 0 W/m² | - |
| 1777860333 | 35° C | 43% | 977 hPa | - | - | 0 W/m² | - |
| 1777859711 | 34.44° C | 44% | 977 hPa | - | - | 0 W/m² | - |
| 1777859089 | 34.44° C | 44% | 977 hPa | - | - | 0 W/m² | - |
| 1777858467 | 34.44° C | 44% | 977 hPa | - | - | 0 W/m² | - |
| 1777857845 | 34.44° C | 44% | 977 hPa | - | - | 0 W/m² | - |
| 1777857223 | 34.44° C | 44% | 977 hPa | - | - | 0 W/m² | - |
| 1777856600 | 33.89° C | 45% | 977 hPa | - | - | 0 W/m² | - |
| 1777855979 | 34.44° C | 46% | 977 hPa | - | - | 0 W/m² | - |
| 1777855357 | 33.89° C | 47% | 976 hPa | - | - | 0 W/m² | - |
| 1777854734 | 33.33° C | 49% | 976 hPa | - | - | 0 W/m² | - |
| 1777854112 | 33.89° C | 48% | 976 hPa | - | - | 0 W/m² | - |
| 1777853491 | 34.44° C | 47% | 976 hPa | - | - | 0 W/m² | - |
| 1777852869 | 34.44° C | 47% | 976 hPa | - | - | 0 W/m² | - |
| 1777852246 | 34.44° C | 46% | 976 hPa | - | - | 0 W/m² | - |
| 1777851625 | 33.33° C | 49% | 976 hPa | - | - | 0 W/m² | - |
| 1777851003 | 34.44° C | 45% | 976 hPa | - | - | 0 W/m² | - |
* Rain since midnight (hover to see other rain measurements)
** Current wind speed in m/s (hover to see current wind gust speed)